Flight Track Log - Related Links

Times and Time Zones

All times are in EDT time to prevent confusion due to time zone crossing. See the EJA583 flight status page for this flight to view local times or setup timezone preferences in your user account.

Time Position Orientation Groundspeed Altitude Reporting Facility
EDT Latitude Longitude Course Direction KTS MPH feet Rate Location/Type
Sat 10:10:08 AM 46.7500 -71.4167 176° South 200 230 3,000  Level Montreal Center
Sat 10:11:08 AM 46.6833 -71.4333 190° South 250 288 7,300 4,600 Climbing Montreal Center
Sat 10:12:08 AM 46.6167 -71.4500 190° South 220 253 12,200 2,850 Climbing Montreal Center
Sat 10:13:08 AM 46.5500 -71.4333 170° South 290 334 13,000 400 Climbing Montreal Center
Sat 10:14:00 AM 46.2716 -71.3447 176° South  Level Estimated
Sat 10:14:08 AM 46.4500 -71.4333 180° South 340 391 13,000  Level Montreal Center
Sat 10:15:00 AM 46.1850 -71.3367 176° South  Level Estimated
Sat 10:15:08 AM 46.3667 -71.4167 172° South 310 357 16,800  Level Montreal Center
Sat 10:16:08 AM 46.2833 -71.4333 188° South 270 311 20,500 3,000 Climbing Montreal Center
Sat 10:17:08 AM 46.2167 -71.4167 170° South 270 311 22,800 2,000 Climbing Montreal Center
Sat 10:18:08 AM 46.1500 -71.4000 170° South 290 334 24,500 1,500 Climbing Montreal Center
Sat 10:19:08 AM 46.0500 -71.3500 161° South 330 380 25,800 750 Climbing Montreal Center
Sat 10:20:08 AM 45.9667 -71.3333 172° South 370 426 26,000 100 Climbing Montreal Center
Sat 10:21:08 AM 45.8500 -71.3000 169° South 390 449 26,000  Level Montreal Center
Sat 10:22:08 AM 45.7333 -71.2667 169° South 400 460 26,000  Level Montreal Center
Sat 10:23:08 AM 45.6167 -71.2167 163° South 400 460 26,000  Level Montreal Center
Sat 10:24:08 AM 45.5167 -71.2000 173° South 400 460 26,000  Level Montreal Center
Sat 10:25:08 AM 45.4000 -71.1667 169° South 400 460 26,000  Level Montreal Center
Sat 10:26:08 AM 45.3000 -71.1333 167° South 400 460 26,000  Level Montreal Center
Sat 10:26:52 AM 45.2497 -71.1400 185° South 398 458 26,000  Level Boston Center
Sat 10:27:52 AM 45.1453 -71.1069 167° South 391 450 26,000  Level Boston Center
Sat 10:28:52 AM 45.0450 -71.0800 169° South 378 435 26,000  Level Boston Center
Sat 10:29:52 AM 44.9508 -71.0500 167° South 367 422 26,000  Level Boston Center
Sat 10:30:52 AM 44.8547 -71.0228 169° South 355 409 26,000  Level Boston Center
Sat 10:31:52 AM 44.7561 -70.9756 161° South 360 414 26,000  Level Boston Center
Sat 10:32:52 AM 44.6556 -70.9314 163° South 366 421 26,000  Level Boston Center
Sat 10:33:52 AM 44.5594 -70.8961 165° South 366 421 26,000  Level Boston Center
Sat 10:34:52 AM 44.4589 -70.8667 168° South 366 421 26,000 -250 Level Boston Center
Sat 10:35:52 AM 44.3586 -70.8431 170° South 361 415 25,500 -1,000 Descending Boston Center
Sat 10:36:52 AM 44.2542 -70.8169 170° South 375 432 24,000 -750 Descending Boston Center
Sat 10:37:52 AM 44.1453 -70.7911 170° South 382 440 24,000  Level Boston Center
Sat 10:38:52 AM 44.0408 -70.7650 170° South 387 445 24,000  Level Boston Center
Sat 10:39:52 AM 43.9361 -70.7392 170° South 387 445 24,000  Level Boston Center
Sat 10:40:52 AM 43.8317 -70.7161 171° South 387 445 24,000 -45 Level Boston Center
Sat 10:42:04 AM 43.7311 -70.6903 169° South 387 445 23,900 -591 Descending Boston Center
Sat 10:43:04 AM 43.6119 -70.6564 168° South 377 434 22,700 -1,050 Descending Boston Center
Sat 10:44:04 AM 43.5114 -70.6336 171° South 372 428 21,800 -950 Descending Boston Center
Sat 10:45:04 AM 43.4089 -70.6025 168° South 372 428 20,800 -900 Descending Boston Center
Sat 10:46:04 AM 43.3103 -70.5569 161° South 372 428 20,000 -400 Descending Boston Center
Sat 10:47:04 AM 43.2219 -70.5169 162° South 360 414 20,000  Level Boston Center
Sat 10:48:04 AM 43.1339 -70.4769 162° South 346 398 20,000 -100 Level Boston Center
Sat 10:49:04 AM 43.0433 -70.4344 161° South 346 398 19,800 -1,250 Descending Boston Center
Sat 10:50:04 AM 42.9342 -70.3842 161° South 363 418 17,500 -1,850 Descending Boston Center
Sat 10:51:04 AM 42.8606 -70.3497 161° South 363 418 16,100 -1,600 Descending Boston Center
Sat 10:52:04 AM 42.7639 -70.3050 161° South 351 404 14,300 -1,950 Descending Boston Center
Sat 10:53:04 AM 42.6956 -70.3356 198° South 299 344 12,200 -1,500 Descending Boston Center
Sat 10:54:16 AM 42.6747 -70.4406 255° West 230 265 11,000 -1,091 Descending Boston Center
Sat 10:55:16 AM 42.6517 -70.5656 256° West 259 298 9,800 -1,500 Descending Boston Center
Sat 10:56:16 AM 42.6344 -70.6592 256° West 259 298 8,000 -2,000 Descending Boston Center
Sat 10:57:16 AM 42.6150 -70.7444 253° West 259 298 5,800 -1,950 Descending Boston Center
Sat 10:58:16 AM 42.6017 -70.8267 258° West 239 275 4,100 -931 Descending Boston Center
Sat 10:59:12 AM 42.5833 -70.8833 246° West 159 183 4,000 -569 Descending KA90
Sat 11:00:12 AM 42.5667 -70.9167 236° Southwest 174 200 3,000 -571 Descending KA90
Sat 11:01:18 AM 42.5167 -70.9333 194° South 174 200 2,800 -500 Descending KA90
Sat 11:02:12 AM 42.4667 -70.9500 194° South 164 189 2,000 -833 Descending KA90
Sat 11:03:06 AM 42.4333 -70.9667 200° South 155 178 1,300 -700 Descending KA90
Sat 11:04:12 AM 42.4000 -70.9833 200° South 124 143 600 -636 Descending KA90
Sat 11:07:00 AM 42.3630 -71.0064 North  Level Estimated

Login

Don't have an account? Register now (free) for customized features, flight alerts, and more!